HTIR/IRI METAR and TAF weather

Enter ICAO airport designator
Station Type Date Time Source
HTIR METAR 2019/02/23 21:00 UTC NOAA

HTIR 232100Z 03007KT 9999 BKN020 19/17 Q1025


Station Type Date Time Source
HTIR Decoded METAR 2019/02/23 21:00 UTC NOAA

Iringa, Tanzania (HTIR) 07-40S 035-45E 1428M
Feb 23, 2019 - 04:00 PM EST / 2019.02.23 2100 UTC
Wind: from the NNE (030 degrees) at 8 MPH (7 KT):0
Visibility: greater than 7 mile(s):0
Sky conditions: mostly cloudy
Temperature: 66 F (19 C)
Dew Point: 62 F (17 C)
Relative Humidity: 88%
Pressure (altimeter): 30.27 in. Hg (1025 hPa)
ob: HTIR 232100Z 03007KT 9999 BKN020 19/17 Q1025
cycle: 21

Station Type Date Time Source
HTIR TAF UTC NOAA

Error!


Example: see airport list